Terminal Aerodrome Forecast
Issued by NWS

Current Version | Previous Version | Text Only | Print | Product List | Glossary On
Versions: 1 2 3 4 5 6 7 8 9 10 11 12 13 14 15 16
122
FTUS46 KSGX 302334
TAFSNA
TAF
KSNA 302334Z 3100/3124 24008KT P6SM FEW030
     FM310100 VRB04KT P6SM FEW018
     FM310700 VRB04KT P6SM OVC015
     FM311900 23008KT P6SM SKC=

USA.gov is the U.S. government's official web portal to all federal, state and local government web resources and services.